createdAt,value
2017-12-11T00:00:06.026Z,73.20
2017-12-11T00:02:35.046Z,74.30
2017-12-11T00:05:03.506Z,77.40
2017-12-11T00:07:31.125Z,78.20
2017-12-11T00:09:59.634Z,77.80
2017-12-11T00:12:27.265Z,77.50
2017-12-11T00:14:54.880Z,76.10
2017-12-11T00:17:22.852Z,75.00
2017-12-11T00:19:50.470Z,76.30
2017-12-11T00:22:18.086Z,73.60
2017-12-11T00:24:45.770Z,74.50
2017-12-11T00:27:14.319Z,74.90
2017-12-11T00:29:42.891Z,76.30
2017-12-11T00:32:11.583Z,78.70
2017-12-11T00:34:39.211Z,79.00
2017-12-11T00:37:06.841Z,69.30
2017-12-11T00:39:34.517Z,68.20
2017-12-11T00:44:29.752Z,71.20
2017-12-11T00:46:58.777Z,67.40
2017-12-11T00:49:26.398Z,70.80
2017-12-11T00:51:54.016Z,76.40
2017-12-11T00:54:22.574Z,74.80
2017-12-11T00:56:50.195Z,74.20
2017-12-11T00:59:23.688Z,76.20
2017-12-11T01:01:46.599Z,78.30
2017-12-11T01:04:14.224Z,77.60
2017-12-11T01:06:41.857Z,76.10
2017-12-11T01:09:09.599Z,78.20
2017-12-11T01:11:37.226Z,78.80
2017-12-11T01:14:04.850Z,80.10
2017-12-11T01:16:32.543Z,80.90
2017-12-11T01:19:00.167Z,80.00
2017-12-11T01:24:09.962Z,76.50
2017-12-11T01:26:37.653Z,77.50
2017-12-11T01:29:06.311Z,76.50
2017-12-11T01:31:33.987Z,78.90
2017-12-11T01:34:01.612Z,77.80
2017-12-11T01:36:29.240Z,63.90
2017-12-11T01:38:57.040Z,72.30
2017-12-11T01:41:24.665Z,76.70
2017-12-11T01:43:52.614Z,77.50
2017-12-11T01:46:20.298Z,78.00
2017-12-11T01:48:47.920Z,78.40
2017-12-11T01:51:16.351Z,79.30
2017-12-11T01:53:44.345Z,76.20
2017-12-11T01:56:12.795Z,71.80
2017-12-11T01:58:41.259Z,73.50
2017-12-11T02:01:09.792Z,75.60
2017-12-11T02:06:17.591Z,76.60
2017-12-11T02:08:47.154Z,75.30
2017-12-11T02:13:42.470Z,79.40
2017-12-11T02:16:10.096Z,80.90
2017-12-11T02:18:37.725Z,80.80
2017-12-11T02:21:05.502Z,79.20
2017-12-11T02:23:33.123Z,77.50
2017-12-11T02:28:28.421Z,77.30
2017-12-11T02:30:58.032Z,76.00
2017-12-11T02:33:23.654Z,76.40
2017-12-11T02:35:52.613Z,79.50
2017-12-11T02:38:20.240Z,79.60
2017-12-11T02:40:47.869Z,78.50
2017-12-11T02:43:15.549Z,76.40
2017-12-11T02:45:44.018Z,79.00
2017-12-11T02:48:11.652Z,80.00
2017-12-11T02:50:39.332Z,80.40
2017-12-11T02:53:06.958Z,79.10
2017-12-11T02:55:34.573Z,71.70
2017-12-11T02:58:02.354Z,72.70
2017-12-11T03:00:30.703Z,74.50
2017-12-11T03:02:59.158Z,72.70
2017-12-11T03:05:26.945Z,75.20
2017-12-11T03:10:22.993Z,73.90
2017-12-11T03:12:50.691Z,73.50
2017-12-11T03:15:19.127Z,60.90
2017-12-11T03:17:47.631Z,64.50
2017-12-11T03:20:16.631Z,68.40
2017-12-11T03:22:45.064Z,67.50
2017-12-11T03:25:13.634Z,71.60
2017-12-11T03:27:41.318Z,73.10
2017-12-11T03:32:50.495Z,74.90
2017-12-11T03:35:18.114Z,70.70
2017-12-11T03:37:45.735Z,78.40
2017-12-11T03:40:13.420Z,79.10
2017-12-11T03:42:41.867Z,79.80
2017-12-11T03:45:09.494Z,81.70
2017-12-11T03:47:37.284Z,81.20
2017-12-11T03:52:46.143Z,77.40
2017-12-11T03:55:15.265Z,78.70
2017-12-11T03:57:43.767Z,77.80
2017-12-11T04:00:11.556Z,75.80
2017-12-11T04:02:39.183Z,77.20
2017-12-11T04:05:06.803Z,78.40
2017-12-11T04:07:34.852Z,77.80
2017-12-11T04:10:02.473Z,77.70
2017-12-11T04:12:31.228Z,79.10
2017-12-11T04:15:01.441Z,80.90
2017-12-11T04:17:29.070Z,80.80
2017-12-11T04:19:56.720Z,80.80
2017-12-11T04:22:24.806Z,80.10
2017-12-11T04:24:52.419Z,78.70
2017-12-11T04:27:20.859Z,80.10
2017-12-11T04:29:48.532Z,79.90
2017-12-11T04:32:17.891Z,77.40
2017-12-11T04:34:45.502Z,78.40
2017-12-11T04:37:13.287Z,76.60
2017-12-11T04:39:41.727Z,75.10
2017-12-11T04:42:10.285Z,71.50
2017-12-11T04:44:38.891Z,75.70
2017-12-11T04:47:06.504Z,77.10
2017-12-11T04:49:34.125Z,77.70
2017-12-11T04:52:02.875Z,76.80
2017-12-11T04:54:30.493Z,69.10
2017-12-11T04:56:58.922Z,72.20
2017-12-11T04:59:26.631Z,71.90
2017-12-11T05:01:54.282Z,63.50
2017-12-11T05:04:22.799Z,70.90
2017-12-11T05:06:50.675Z,71.20
2017-12-11T05:09:18.297Z,67.20
2017-12-11T05:11:45.910Z,67.40
2017-12-11T05:16:54.207Z,74.80
2017-12-11T05:19:23.003Z,76.40
2017-12-11T05:21:50.620Z,76.50
2017-12-11T05:24:18.238Z,76.20
2017-12-11T05:26:46.301Z,77.30
2017-12-11T05:29:13.912Z,76.80
2017-12-11T05:31:41.523Z,76.40
2017-12-11T05:34:09.205Z,76.20
2017-12-11T05:36:36.819Z,71.80
2017-12-11T05:39:04.432Z,72.70
2017-12-11T05:41:32.201Z,71.90
2017-12-11T05:44:00.811Z,73.60
2017-12-11T05:46:28.431Z,64.40
2017-12-11T05:48:56.900Z,65.50
2017-12-11T05:54:07.651Z,60.70
2017-12-11T05:56:35.263Z,62.40
2017-12-11T05:59:03.836Z,64.60
2017-12-11T06:01:31.519Z,62.40
2017-12-11T06:06:26.751Z,57.80
2017-12-11T06:11:22.352Z,62.70
2017-12-11T06:13:49.997Z,63.70
2017-12-11T06:16:17.929Z,65.80
2017-12-11T06:21:31.505Z,67.30
2017-12-11T06:24:01.154Z,65.40
2017-12-11T06:26:25.376Z,61.00
2017-12-11T06:28:53.056Z,57.40
2017-12-11T06:31:21.415Z,55.70
2017-12-11T06:33:49.933Z,61.10
2017-12-11T06:36:17.472Z,66.40
2017-12-11T06:38:45.094Z,61.90
2017-12-11T06:41:12.967Z,61.20
2017-12-11T06:43:40.578Z,63.80
2017-12-11T06:46:08.192Z,69.60
2017-12-11T06:48:35.870Z,72.20
2017-12-11T06:51:04.304Z,72.20
2017-12-11T06:53:31.926Z,70.60
2017-12-11T06:56:00.450Z,71.40
2017-12-11T06:58:28.055Z,72.50
2017-12-11T07:00:56.804Z,67.80
2017-12-11T07:03:24.354Z,70.90
2017-12-11T07:05:51.980Z,69.90
2017-12-11T07:08:19.591Z,55.70
2017-12-11T07:10:48.590Z,53.20
2017-12-11T07:13:16.211Z,52.60
2017-12-11T07:15:43.826Z,54.00
2017-12-11T07:20:51.395Z,52.00
2017-12-11T07:23:19.064Z,50.50
2017-12-11T07:25:46.686Z,51.20
2017-12-11T07:28:14.299Z,50.20
2017-12-11T07:30:42.080Z,51.10
2017-12-11T07:33:09.696Z,51.40
2017-12-11T07:35:38.162Z,50.20
2017-12-11T07:38:06.651Z,49.10
2017-12-11T07:40:34.275Z,50.70
2017-12-11T07:43:02.700Z,48.90
2017-12-11T07:45:31.442Z,49.30
2017-12-11T07:47:59.052Z,48.90
2017-12-11T07:50:27.614Z,48.90
2017-12-11T07:52:55.283Z,49.30
2017-12-11T07:55:22.904Z,48.70
2017-12-11T07:57:50.519Z,49.50
2017-12-11T08:00:19.510Z,48.50
2017-12-11T08:02:47.125Z,48.50
2017-12-11T08:05:15.571Z,48.10
2017-12-11T08:07:44.190Z,48.10
2017-12-11T08:10:12.628Z,49.20
2017-12-11T08:12:40.261Z,54.10
2017-12-11T08:15:07.942Z,51.70
2017-12-11T08:17:35.559Z,51.60
2017-12-11T08:20:04.032Z,51.80
2017-12-11T08:24:59.336Z,47.70
2017-12-11T08:27:26.956Z,47.70
2017-12-11T08:29:54.820Z,47.20
2017-12-11T08:32:22.434Z,47.00
2017-12-11T08:34:50.063Z,47.20
2017-12-11T08:37:17.738Z,46.90
2017-12-11T08:39:49.695Z,48.40
2017-12-11T08:42:17.483Z,49.70
2017-12-11T08:47:24.249Z,49.30
2017-12-11T08:49:51.864Z,49.90
2017-12-11T08:52:19.488Z,50.00
2017-12-11T08:54:47.501Z,50.20
2017-12-11T08:57:15.124Z,50.20
2017-12-11T08:59:43.713Z,50.70
2017-12-11T09:02:11.390Z,50.70
2017-12-11T09:04:39.000Z,50.50
2017-12-11T09:07:06.625Z,51.70
2017-12-11T09:09:35.234Z,52.10
2017-12-11T09:12:03.803Z,50.90
2017-12-11T09:14:31.592Z,50.60
2017-12-11T09:16:59.278Z,50.70
2017-12-11T09:19:26.924Z,50.80
2017-12-11T09:21:54.570Z,49.50
2017-12-11T09:24:22.495Z,48.20
2017-12-11T09:26:50.125Z,49.60
2017-12-11T09:29:17.755Z,50.20
2017-12-11T09:31:46.143Z,50.30
2017-12-11T09:34:13.766Z,51.00
2017-12-11T09:36:41.388Z,50.90
2017-12-11T09:39:09.176Z,51.50
2017-12-11T09:41:36.793Z,50.70
2017-12-11T09:46:32.088Z,50.70
2017-12-11T09:48:59.712Z,52.60
2017-12-11T09:51:27.337Z,52.10
2017-12-11T09:53:55.009Z,53.10
2017-12-11T09:56:22.634Z,53.00
2017-12-11T09:58:50.255Z,52.90
2017-12-11T10:01:17.930Z,53.60
2017-12-11T10:03:45.551Z,53.10
2017-12-11T10:08:52.326Z,53.70
2017-12-11T10:13:47.562Z,52.80
2017-12-11T10:16:16.267Z,53.20
2017-12-11T10:18:43.888Z,53.30
2017-12-11T10:21:12.452Z,53.70
2017-12-11T10:23:41.096Z,54.20
2017-12-11T10:26:09.556Z,53.90
2017-12-11T10:28:37.177Z,53.90
2017-12-11T10:31:04.864Z,53.40
2017-12-11T10:33:33.313Z,53.40
2017-12-11T10:36:00.947Z,53.50
2017-12-11T10:38:28.610Z,52.70
2017-12-11T10:40:56.226Z,51.40
2017-12-11T10:43:24.791Z,50.50
2017-12-11T10:45:52.471Z,50.90
2017-12-11T10:48:21.051Z,49.80
2017-12-11T10:50:49.516Z,49.90
2017-12-11T10:55:45.723Z,50.00
2017-12-11T10:58:13.370Z,47.80
2017-12-11T11:00:42.665Z,48.50
2017-12-11T11:05:49.341Z,49.10
2017-12-11T11:08:16.967Z,48.70
2017-12-11T11:10:44.588Z,49.60
2017-12-11T11:13:12.262Z,50.20
2017-12-11T11:15:39.883Z,50.30
2017-12-11T11:18:08.340Z,51.30
2017-12-11T11:20:36.033Z,50.90
2017-12-11T11:23:04.544Z,51.00
2017-12-11T11:25:33.119Z,50.60
2017-12-11T11:28:00.804Z,51.10
2017-12-11T11:30:28.833Z,50.50
2017-12-11T11:32:56.829Z,50.60
2017-12-11T11:35:24.842Z,50.80
2017-12-11T11:37:52.411Z,51.10
2017-12-11T11:40:20.034Z,51.20
2017-12-11T11:42:48.130Z,51.10
2017-12-11T11:45:15.966Z,49.50
2017-12-11T11:47:43.825Z,50.60
2017-12-11T11:50:11.694Z,49.80
2017-12-11T11:52:39.546Z,49.60
2017-12-11T11:55:07.229Z,49.50
2017-12-11T12:00:20.720Z,49.70
2017-12-11T12:02:48.569Z,50.20
2017-12-11T12:05:16.152Z,49.20
2017-12-11T12:07:43.832Z,47.90
2017-12-11T12:10:11.764Z,47.90
2017-12-11T12:12:39.665Z,48.00
2017-12-11T12:15:07.311Z,47.90
2017-12-11T12:17:35.044Z,47.20
2017-12-11T12:20:02.772Z,47.80
2017-12-11T12:24:58.362Z,48.00
2017-12-11T12:27:25.955Z,47.90
2017-12-11T12:29:56.283Z,48.00
2017-12-11T12:34:51.776Z,48.00
2017-12-11T12:37:19.411Z,48.60
2017-12-11T12:39:47.255Z,47.70
2017-12-11T12:42:15.934Z,48.40
2017-12-11T12:44:43.540Z,47.70
2017-12-11T12:47:11.231Z,48.30
2017-12-11T12:52:07.420Z,48.50
2017-12-11T12:54:36.064Z,48.30
2017-12-11T12:59:32.302Z,47.10
2017-12-11T13:01:59.994Z,47.30
2017-12-11T13:04:27.622Z,47.70
2017-12-11T13:06:55.245Z,47.90
2017-12-11T13:09:23.040Z,49.20
2017-12-11T13:11:51.612Z,48.40
2017-12-11T13:14:20.165Z,48.60
2017-12-11T13:19:26.946Z,50.20
2017-12-11T13:21:54.742Z,49.20
2017-12-11T13:24:22.378Z,48.70
2017-12-11T13:26:50.635Z,50.10
2017-12-11T13:29:18.209Z,49.50
2017-12-11T13:31:45.856Z,50.50
2017-12-11T13:34:13.483Z,50.60
2017-12-11T13:39:10.746Z,49.40
2017-12-11T13:41:38.369Z,49.30
2017-12-11T13:44:06.067Z,49.70
2017-12-11T13:49:01.308Z,48.40
2017-12-11T13:51:29.089Z,48.60
2017-12-11T13:53:57.119Z,50.20
2017-12-11T13:56:25.701Z,50.40
2017-12-11T13:58:53.381Z,49.90
2017-12-11T14:01:20.997Z,49.40
2017-12-11T14:03:48.616Z,51.60
2017-12-11T14:06:16.583Z,51.50
2017-12-11T14:08:44.208Z,51.70
2017-12-11T14:11:12.774Z,51.40
2017-12-11T14:13:41.496Z,50.80
2017-12-11T14:16:09.111Z,50.90
2017-12-11T14:18:37.672Z,51.30
2017-12-11T14:21:05.347Z,50.50
2017-12-11T14:23:33.935Z,50.20
2017-12-11T14:26:01.555Z,51.50
2017-12-11T14:28:29.389Z,49.60
2017-12-11T14:30:57.012Z,49.80
2017-12-11T14:33:24.636Z,49.70
2017-12-11T14:35:53.270Z,48.70
2017-12-11T14:38:20.883Z,49.30
2017-12-11T14:40:49.451Z,49.30
2017-12-11T14:45:56.431Z,48.10
2017-12-11T14:48:24.966Z,48.00
2017-12-11T14:50:52.594Z,47.80
2017-12-11T14:53:20.218Z,47.70
2017-12-11T14:55:48.117Z,48.00
2017-12-11T14:58:16.559Z,48.20
2017-12-11T15:00:44.196Z,49.30
2017-12-11T15:03:12.023Z,50.10
2017-12-11T15:05:39.647Z,49.60
2017-12-11T15:08:07.275Z,50.70
2017-12-11T15:10:38.105Z,50.00
2017-12-11T15:13:05.721Z,49.20
2017-12-11T15:15:33.350Z,49.80
2017-12-11T15:18:01.024Z,50.20
2017-12-11T15:23:07.426Z,47.80
2017-12-11T15:25:35.051Z,47.60
2017-12-11T15:30:30.624Z,49.50
2017-12-11T15:32:58.264Z,48.80
2017-12-11T15:35:25.893Z,49.30
2017-12-11T15:37:53.704Z,48.90
2017-12-11T15:40:21.295Z,48.60
2017-12-11T15:42:48.917Z,47.90
2017-12-11T15:45:16.645Z,49.00
2017-12-11T15:47:44.279Z,48.90
2017-12-11T15:50:11.900Z,48.40
2017-12-11T15:52:39.599Z,47.60
2017-12-11T15:55:07.196Z,47.60
2017-12-11T15:57:34.829Z,47.00
2017-12-11T16:00:03.756Z,47.60
2017-12-11T16:02:31.408Z,48.10
2017-12-11T16:04:59.476Z,49.00
2017-12-11T16:07:27.178Z,48.00
2017-12-11T16:09:54.807Z,48.10
2017-12-11T16:12:22.429Z,48.80
2017-12-11T16:14:50.108Z,49.50
2017-12-11T16:17:17.732Z,49.40
2017-12-11T16:19:45.351Z,49.50
2017-12-11T16:22:13.032Z,48.50
2017-12-11T16:24:40.653Z,49.00
2017-12-11T16:27:08.279Z,47.30
2017-12-11T16:29:36.075Z,48.10
2017-12-11T16:32:03.745Z,46.80
2017-12-11T16:34:31.366Z,47.40
2017-12-11T16:36:59.080Z,47.50
2017-12-11T16:39:26.689Z,47.10
2017-12-11T16:41:54.309Z,47.00
2017-12-11T16:44:22.275Z,48.20
2017-12-11T16:46:51.877Z,46.90
2017-12-11T16:52:01.100Z,49.60
2017-12-11T16:54:28.935Z,49.30
2017-12-11T16:56:56.391Z,49.00
2017-12-11T16:59:24.207Z,49.50
2017-12-11T17:01:51.834Z,49.30
2017-12-11T17:04:19.462Z,49.50
2017-12-11T17:06:47.403Z,48.90
2017-12-11T17:09:15.024Z,49.60
2017-12-11T17:16:49.878Z,49.50
2017-12-11T17:21:45.285Z,49.60
2017-12-11T17:24:12.912Z,48.90
2017-12-11T17:26:40.538Z,48.40
2017-12-11T17:29:08.501Z,50.30
2017-12-11T17:31:36.134Z,49.30
2017-12-11T17:34:03.758Z,47.30
2017-12-11T17:36:31.460Z,47.70
2017-12-11T17:38:59.079Z,48.10
2017-12-11T17:41:26.708Z,48.60
2017-12-11T17:43:54.501Z,47.00
2017-12-11T17:46:22.284Z,47.10
2017-12-11T17:48:49.891Z,47.40
2017-12-11T17:51:17.691Z,47.30
2017-12-11T17:53:46.071Z,47.20
2017-12-11T17:58:54.851Z,48.00
2017-12-11T18:01:21.826Z,47.50
2017-12-11T18:03:49.506Z,48.30
2017-12-11T18:09:05.185Z,47.10
2017-12-11T18:11:32.969Z,47.80
2017-12-11T18:14:00.599Z,47.80
2017-12-11T18:16:28.227Z,48.80
2017-12-11T18:18:55.927Z,48.40
2017-12-11T18:21:23.553Z,48.80
2017-12-11T18:23:51.190Z,48.80
2017-12-11T18:26:19.844Z,48.70
2017-12-11T18:28:48.455Z,49.10
2017-12-11T18:31:16.083Z,48.20
2017-12-11T18:33:43.808Z,48.50
2017-12-11T18:36:12.155Z,49.10
2017-12-11T18:38:39.788Z,49.30
2017-12-11T18:41:08.486Z,50.00
2017-12-11T18:43:36.127Z,50.30
2017-12-11T18:46:03.777Z,50.80
2017-12-11T18:48:31.585Z,51.00
2017-12-11T18:50:59.219Z,50.70
2017-12-11T18:53:27.801Z,51.70
2017-12-11T18:55:55.599Z,50.90
2017-12-11T18:58:24.182Z,51.60
2017-12-11T19:00:51.848Z,51.20
2017-12-11T19:03:19.674Z,51.40
2017-12-11T19:05:47.488Z,52.10
2017-12-11T19:08:15.087Z,51.80
2017-12-11T19:10:42.790Z,50.70
2017-12-11T19:13:10.412Z,50.70
2017-12-11T19:15:38.905Z,51.90
2017-12-11T19:18:06.834Z,51.80
2017-12-11T19:20:34.490Z,51.50
2017-12-11T19:23:02.167Z,52.80
2017-12-11T19:25:30.278Z,52.90
2017-12-11T19:27:57.904Z,51.50
2017-12-11T19:30:25.652Z,51.60
2017-12-11T19:35:32.631Z,52.00
2017-12-11T19:38:00.400Z,51.90
2017-12-11T19:40:28.203Z,51.00
2017-12-11T19:42:55.912Z,51.20
2017-12-11T19:45:24.200Z,51.20
2017-12-11T19:47:51.784Z,52.90
2017-12-11T19:50:20.042Z,53.00
2017-12-11T19:52:47.697Z,54.50
2017-12-11T19:55:15.426Z,53.50
2017-12-11T19:57:45.045Z,54.10
2017-12-11T20:02:53.467Z,54.70
2017-12-11T20:05:21.488Z,54.50
2017-12-11T20:07:49.262Z,56.20
2017-12-11T20:10:17.084Z,56.40
2017-12-11T20:12:45.230Z,56.50
2017-12-11T20:15:12.751Z,57.50
2017-12-11T20:17:40.423Z,57.20
2017-12-11T20:20:08.089Z,57.80
2017-12-11T20:22:35.717Z,58.00
2017-12-11T20:25:03.478Z,58.00
2017-12-11T20:27:31.407Z,59.10
2017-12-11T20:29:59.130Z,61.50
2017-12-11T20:32:26.998Z,62.00
2017-12-11T20:34:54.925Z,59.80
2017-12-11T20:37:23.206Z,57.70
2017-12-11T20:39:51.239Z,58.10
2017-12-11T20:42:18.892Z,59.00
2017-12-11T20:44:47.067Z,56.00
2017-12-11T20:47:15.361Z,57.80
2017-12-11T20:49:44.096Z,58.30
2017-12-11T20:52:11.759Z,60.30
2017-12-11T20:54:39.433Z,60.00
2017-12-11T20:57:07.212Z,59.00
2017-12-11T20:59:34.877Z,59.60
2017-12-11T21:02:02.601Z,58.20
2017-12-11T21:04:30.464Z,58.90
2017-12-11T21:09:37.663Z,58.30
2017-12-11T21:12:05.279Z,58.40
2017-12-11T21:14:32.906Z,58.30
2017-12-11T21:17:00.944Z,60.00
2017-12-11T21:19:28.775Z,59.70
2017-12-11T21:21:57.010Z,60.20
2017-12-11T21:24:24.500Z,60.30
2017-12-11T21:29:20.220Z,60.00
2017-12-11T21:31:48.136Z,59.80
2017-12-11T21:34:15.772Z,60.40
2017-12-11T21:36:43.566Z,61.10
2017-12-11T21:44:18.154Z,60.90
2017-12-11T21:46:45.775Z,60.90
2017-12-11T21:49:13.533Z,61.40
2017-12-11T21:51:41.304Z,61.00
2017-12-11T21:54:09.045Z,58.90
2017-12-11T21:59:04.424Z,64.20
2017-12-11T22:01:33.004Z,65.70
2017-12-11T22:04:00.077Z,66.20
2017-12-11T22:08:55.550Z,63.40
2017-12-11T22:11:23.175Z,61.50
2017-12-11T22:13:50.791Z,62.80
2017-12-11T22:16:18.408Z,62.80
2017-12-11T22:18:46.192Z,63.00
2017-12-11T22:21:13.851Z,61.40
2017-12-11T22:23:41.432Z,62.90
2017-12-11T22:26:09.114Z,63.70
2017-12-11T22:28:36.740Z,67.00
2017-12-11T22:31:04.356Z,67.00
2017-12-11T22:33:32.142Z,66.00
2017-12-11T22:35:59.840Z,65.00
2017-12-11T22:40:55.053Z,66.20
2017-12-11T22:43:22.687Z,65.80
2017-12-11T22:45:50.296Z,66.80
2017-12-11T22:48:18.299Z,69.30
2017-12-11T22:50:45.919Z,68.90
2017-12-11T22:53:13.656Z,65.60
2017-12-11T22:55:41.266Z,66.40
2017-12-11T22:58:08.896Z,68.60
2017-12-11T23:00:37.935Z,71.10
2017-12-11T23:05:44.902Z,72.10
2017-12-11T23:08:13.010Z,73.20
2017-12-11T23:10:40.631Z,70.90
2017-12-11T23:13:08.253Z,70.60
2017-12-11T23:15:36.085Z,68.90
2017-12-11T23:18:03.719Z,68.10
2017-12-11T23:20:31.370Z,71.40
2017-12-11T23:22:59.053Z,69.80
2017-12-11T23:25:26.670Z,69.80
2017-12-11T23:27:54.281Z,71.00
2017-12-11T23:30:22.203Z,71.50
2017-12-11T23:32:49.825Z,72.30
2017-12-11T23:35:18.273Z,72.30
2017-12-11T23:37:46.366Z,71.70
2017-12-11T23:40:13.982Z,72.20
2017-12-11T23:42:41.598Z,76.80
2017-12-11T23:45:09.290Z,75.90
2017-12-11T23:47:36.900Z,75.90
2017-12-11T23:50:04.513Z,75.60
2017-12-11T23:55:00.553Z,78.00
2017-12-11T23:57:28.170Z,77.60
2017-12-11T23:59:55.853Z,81.70
